Time;durP1;ratioP1;P1;durP2;ratioP2;P2;SDS_P1;SDS_P2;PMS_P1;PMS_P2;Temp;Humidity;BMP_temperature;BMP_pressure;BME280_temperature;BME280_humidity;BME280_pressure;Samples;Min_cycle;Max_cycle;Signal;HPM_P1;HPM_P2
2023/06/08 00:00:31;;;;;;;2.47;1.60;;;11.10;54.70;;;;;;5071270;28;20191;-50
2023/06/08 00:03:04;;;;;;;2.33;1.25;;;11.10;54.70;;;;;;5071176;28;20660;-56
2023/06/08 00:05:44;;;;;;;1.88;1.20;;;11.10;54.80;;;;;;5070569;28;20657;-51
2023/06/08 00:08:15;;;;;;;2.08;1.60;;;11.20;54.80;;;;;;5071147;28;20281;-55
2023/06/08 00:10:46;;;;;;;1.40;1.30;;;11.20;54.80;;;;;;5071451;28;20191;-50
2023/06/08 00:13:18;;;;;;;2.45;1.65;;;11.20;54.80;;;;;;5070967;28;20556;-52
2023/06/08 00:15:49;;;;;;;1.52;1.42;;;11.20;54.90;;;;;;5070385;28;20637;-55
2023/06/08 00:18:20;;;;;;;2.35;1.50;;;11.20;54.90;;;;;;5071010;28;20191;-50
2023/06/08 00:20:51;;;;;;;2.90;1.90;;;11.20;54.90;;;;;;5071192;28;20199;-52
2023/06/08 00:23:22;;;;;;;1.73;1.38;;;11.30;55.00;;;;;;5071276;28;20643;-51
2023/06/08 00:25:53;;;;;;;2.97;1.77;;;11.30;55.00;;;;;;5070813;28;20268;-52
2023/06/08 00:28:25;;;;;;;2.13;1.48;;;11.30;55.00;;;;;;5073171;28;20203;-55
2023/06/08 00:30:56;;;;;;;1.52;1.38;;;11.30;55.00;;;;;;5071355;28;20202;-54
2023/06/08 00:33:27;;;;;;;2.10;1.65;;;11.30;55.00;;;;;;5074705;28;20202;-50
2023/06/08 00:35:58;;;;;;;2.00;1.33;;;11.30;55.00;;;;;;5074949;28;20218;-51
2023/06/08 00:38:29;;;;;;;1.65;1.10;;;11.30;55.00;;;;;;5077245;28;20191;-51
2023/06/08 00:40:59;;;;;;;2.03;1.40;;;11.30;55.00;;;;;;5074830;28;20559;-52
2023/06/08 00:43:32;;;;;;;1.92;1.58;;;11.40;55.00;;;;;;5074626;28;20195;-55
2023/06/08 00:46:03;;;;;;;1.80;1.40;;;11.40;55.10;;;;;;5074418;28;20225;-49
2023/06/08 00:48:34;;;;;;;1.90;1.60;;;11.40;55.10;;;;;;5074566;28;20285;-52
2023/06/08 00:51:05;;;;;;;1.35;1.25;;;11.40;55.00;;;;;;5074574;28;20194;-50
2023/06/08 00:53:38;;;;;;;1.45;1.30;;;11.50;55.10;;;;;;5074693;28;20560;-52
2023/06/08 00:56:11;;;;;;;2.17;1.55;;;11.50;55.10;;;;;;5074619;28;20215;-52
2023/06/08 00:58:46;;;;;;;1.60;1.33;;;11.50;55.10;;;;;;5093734;28;20226;-53
2023/06/08 01:01:19;;;;;;;3.13;1.70;;;11.50;55.00;;;;;;5094211;28;20209;-53
2023/06/08 01:03:49;;;;;;;2.00;1.60;;;11.50;55.10;;;;;;5094361;28;20241;-52
2023/06/08 01:06:21;;;;;;;2.33;1.58;;;11.50;55.10;;;;;;5093956;28;20210;-54
2023/06/08 01:09:03;;;;;;;1.48;1.20;;;11.60;55.10;;;;;;5094476;28;20194;-53
2023/06/08 01:11:44;;;;;;;2.30;1.30;;;11.60;55.20;;;;;;5094280;28;20198;-50
2023/06/08 01:14:27;;;;;;;1.98;1.40;;;11.60;55.10;;;;;;5094212;28;20197;-53
2023/06/08 01:17:02;;;;;;;2.15;1.42;;;11.60;55.20;;;;;;5094223;28;20189;-56
2023/06/08 01:19:59;;;;;;;1.58;1.20;;;11.70;55.20;;;;;;5094230;28;20259;-50
2023/06/08 01:22:46;;;;;;;1.60;1.30;;;11.70;55.10;;;;;;5094053;28;20229;-51
2023/06/08 01:25:20;;;;;;;1.27;1.17;;;11.70;55.20;;;;;;5093863;28;20216;-52
2023/06/08 01:27:52;;;;;;;2.05;1.30;;;11.70;55.10;;;;;;5081184;28;20290;-53
2023/06/08 01:30:22;;;;;;;1.73;1.25;;;11.80;55.20;;;;;;5074144;28;20566;-54
2023/06/08 01:32:53;;;;;;;1.42;1.30;;;11.80;55.20;;;;;;5073766;28;20804;-52
2023/06/08 01:35:23;;;;;;;1.77;1.52;;;11.80;55.20;;;;;;5073478;28;20218;-50
2023/06/08 01:38:04;;;;;;;1.95;1.63;;;11.80;55.20;;;;;;5073501;28;20199;-52
2023/06/08 01:40:40;;;;;;;3.10;1.58;;;11.90;55.30;;;;;;5074382;28;20194;-50
2023/06/08 01:43:14;;;;;;;1.20;1.10;;;11.90;55.20;;;;;;5071993;28;20593;-52
2023/06/08 01:45:49;;;;;;;1.88;1.38;;;11.90;55.20;;;;;;5073274;28;20721;-52
2023/06/08 01:48:24;;;;;;;1.92;1.70;;;12.00;55.30;;;;;;5073180;28;20669;-51
2023/06/08 01:50:55;;;;;;;1.55;1.42;;;12.00;55.30;;;;;;5072814;28;20195;-53
2023/06/08 01:53:26;;;;;;;2.72;1.60;;;12.00;55.30;;;;;;5073204;28;20205;-54
2023/06/08 01:55:59;;;;;;;2.08;1.20;;;12.00;55.30;;;;;;5073557;28;20219;-54
2023/06/08 01:58:29;;;;;;;1.98;1.10;;;12.10;55.30;;;;;;5072898;28;20198;-54
2023/06/08 02:01:00;;;;;;;1.52;1.25;;;12.10;55.30;;;;;;5073219;28;20203;-55
2023/06/08 02:03:30;;;;;;;1.83;1.50;;;12.10;55.50;;;;;;5073142;28;20716;-50
2023/06/08 02:06:01;;;;;;;1.75;1.40;;;12.10;55.30;;;;;;5073368;28;20211;-55
2023/06/08 02:08:32;;;;;;;2.08;1.27;;;12.20;55.40;;;;;;5072920;28;20202;-54
2023/06/08 02:11:04;;;;;;;1.63;1.45;;;12.20;55.40;;;;;;5072746;28;20194;-53
2023/06/08 02:13:37;;;;;;;2.38;1.38;;;12.20;55.40;;;;;;5072726;28;20202;-54
2023/06/08 02:16:08;;;;;;;2.30;1.67;;;12.30;55.40;;;;;;5073084;28;20246;-54
2023/06/08 02:18:39;;;;;;;2.33;1.33;;;12.30;55.40;;;;;;5072805;28;20585;-55
2023/06/08 02:21:10;;;;;;;2.25;1.52;;;12.30;55.50;;;;;;5072922;28;20209;-51
2023/06/08 02:23:41;;;;;;;1.75;1.50;;;12.40;55.50;;;;;;5072510;28;20215;-53
2023/06/08 02:26:13;;;;;;;1.67;1.48;;;12.40;55.50;;;;;;5072138;28;20222;-55
2023/06/08 02:28:44;;;;;;;2.28;1.45;;;12.40;55.50;;;;;;5072057;28;20205;-54
2023/06/08 02:31:14;;;;;;;1.73;1.50;;;12.40;55.50;;;;;;5072217;28;20202;-52
2023/06/08 02:33:45;;;;;;;1.73;1.60;;;12.50;55.60;;;;;;5075117;28;20282;-55
2023/06/08 02:36:17;;;;;;;2.10;1.70;;;12.50;55.50;;;;;;5072436;28;20218;-53
2023/06/08 02:38:48;;;;;;;1.30;1.20;;;12.50;55.60;;;;;;5072613;28;20195;-53
2023/06/08 02:41:20;;;;;;;1.60;1.40;;;12.60;55.60;;;;;;5072428;28;20195;-53
2023/06/08 02:43:51;;;;;;;2.15;1.40;;;12.60;55.60;;;;;;5074468;28;20221;-54
2023/06/08 02:46:21;;;;;;;3.45;1.83;;;12.60;55.60;;;;;;5072012;28;20603;-56
2023/06/08 02:48:52;;;;;;;1.92;1.42;;;12.70;55.70;;;;;;5072239;28;20195;-54
2023/06/08 02:51:22;;;;;;;1.52;1.40;;;12.70;55.70;;;;;;5072065;28;20201;-55
2023/06/08 02:53:53;;;;;;;1.70;1.50;;;12.70;55.70;;;;;;5071662;28;20203;-50
2023/06/08 02:56:26;;;;;;;1.67;1.50;;;12.80;55.70;;;;;;5072304;28;20215;-52
2023/06/08 02:58:56;;;;;;;1.42;1.30;;;12.80;55.60;;;;;;5091615;28;20281;-50
2023/06/08 03:01:30;;;;;;;2.38;1.30;;;12.80;55.60;;;;;;5092383;28;20194;-52
2023/06/08 03:04:01;;;;;;;1.67;1.20;;;12.90;55.60;;;;;;5091634;28;20217;-54
2023/06/08 03:06:36;;;;;;;1.48;1.20;;;12.90;55.50;;;;;;5091666;28;20218;-55
2023/06/08 03:09:06;;;;;;;1.60;1.30;;;12.90;55.50;;;;;;5092127;28;20285;-52
2023/06/08 03:11:39;;;;;;;2.13;1.50;;;13.00;55.60;;;;;;5091791;28;20205;-52
2023/06/08 03:14:10;;;;;;;2.75;1.52;;;13.10;55.60;;;;;;5091840;28;20194;-53
2023/06/08 03:16:41;;;;;;;1.83;1.63;;;13.00;55.50;;;;;;5091098;28;20579;-51
2023/06/08 03:19:11;;;;;;;2.88;1.50;;;13.10;55.60;;;;;;5091263;28;20194;-54
2023/06/08 03:21:43;;;;;;;1.58;1.48;;;13.10;55.60;;;;;;5091483;28;20194;-52
2023/06/08 03:24:14;;;;;;;1.38;1.27;;;13.10;55.60;;;;;;5091431;28;20308;-52
2023/06/08 03:26:50;;;;;;;2.85;1.50;;;13.20;55.60;;;;;;5087419;28;20573;-53
2023/06/08 03:29:20;;;;;;;2.65;1.65;;;13.20;55.60;;;;;;5071946;28;20195;-51
2023/06/08 03:31:51;;;;;;;1.60;1.25;;;13.30;55.70;;;;;;5071613;28;20205;-54
2023/06/08 03:34:23;;;;;;;1.35;1.25;;;13.30;55.60;;;;;;5071726;28;20225;-55
2023/06/08 03:36:54;;;;;;;2.22;1.60;;;13.30;55.50;;;;;;5071060;28;20564;-54
2023/06/08 03:39:25;;;;;;;2.20;1.40;;;13.40;55.60;;;;;;5071559;28;20198;-53
2023/06/08 03:41:57;;;;;;;2.65;1.67;;;13.40;55.50;;;;;;5080308;28;20243;-54
2023/06/08 03:44:28;;;;;;;2.00;1.70;;;13.40;55.40;;;;;;5091522;28;20198;-48
2023/06/08 03:46:58;;;;;;;2.33;1.55;;;13.50;55.40;;;;;;5091539;28;20198;-53
2023/06/08 03:49:29;;;;;;;2.35;1.67;;;13.50;55.40;;;;;;5091387;28;20198;-48
2023/06/08 03:52:01;;;;;;;2.72;1.50;;;13.50;55.40;;;;;;5091621;28;20235;-52
2023/06/08 03:54:31;;;;;;;2.40;1.70;;;13.60;55.50;;;;;;5092115;28;20272;-55
2023/06/08 03:57:04;;;;;;;2.08;1.45;;;13.60;55.40;;;;;;5085493;28;20203;-53
2023/06/08 03:59:34;;;;;;;2.20;1.55;;;13.60;55.30;;;;;;5071149;28;20594;-56
2023/06/08 04:02:05;;;;;;;1.90;1.58;;;13.70;55.30;;;;;;5070976;28;20568;-53
2023/06/08 04:04:39;;;;;;;1.80;1.50;;;13.70;55.40;;;;;;5070974;28;20651;-53
2023/06/08 04:07:09;;;;;;;2.22;1.67;;;13.70;55.30;;;;;;5073487;28;20194;-50
2023/06/08 04:09:40;;;;;;;2.92;1.60;;;13.70;55.30;;;;;;5074985;28;20670;-51
2023/06/08 04:12:13;;;;;;;2.30;2.00;;;13.80;55.30;;;;;;5074493;28;20202;-54
2023/06/08 04:14:44;;;;;;;2.00;1.80;;;13.80;55.30;;;;;;5075340;28;20654;-54
2023/06/08 04:17:15;;;;;;;2.58;1.92;;;13.90;55.30;;;;;;5075540;28;20222;-52
2023/06/08 04:19:46;;;;;;;2.60;1.73;;;13.90;55.20;;;;;;5075322;28;20202;-56
2023/06/08 04:22:16;;;;;;;2.08;1.88;;;13.90;55.20;;;;;;5075084;28;20198;-54
2023/06/08 04:24:47;;;;;;;4.50;1.83;;;14.00;55.20;;;;;;5075121;28;20195;-55
2023/06/08 04:27:19;;;;;;;3.22;1.60;;;14.00;55.10;;;;;;5074953;28;20600;-53
2023/06/08 04:29:50;;;;;;;2.00;1.80;;;14.00;55.10;;;;;;5075011;28;20199;-52
2023/06/08 04:32:21;;;;;;;2.30;2.10;;;14.10;55.00;;;;;;5075073;28;20194;-54
2023/06/08 04:34:51;;;;;;;2.70;2.05;;;14.10;55.00;;;;;;5074722;28;20213;-54
2023/06/08 04:37:22;;;;;;;3.17;1.83;;;14.10;55.00;;;;;;5074567;28;20202;-50
2023/06/08 04:39:53;;;;;;;1.77;1.67;;;14.10;54.90;;;;;;5075779;28;20195;-52
2023/06/08 04:42:27;;;;;;;1.90;1.70;;;14.10;54.90;;;;;;5074370;28;20195;-49
2023/06/08 04:44:59;;;;;;;2.13;1.92;;;14.10;54.80;;;;;;5077293;28;20249;-52
2023/06/08 04:47:31;;;;;;;2.50;1.70;;;14.10;54.80;;;;;;5074693;28;20621;-54
2023/06/08 04:50:02;;;;;;;1.83;1.60;;;14.10;54.80;;;;;;5074424;28;20226;-56
2023/06/08 04:52:40;;;;;;;2.05;1.80;;;14.10;54.80;;;;;;5074041;28;20222;-53
2023/06/08 04:55:13;;;;;;;2.78;1.83;;;14.10;54.80;;;;;;5074869;28;20576;-50
2023/06/08 04:57:46;;;;;;;2.88;1.83;;;14.10;54.80;;;;;;5085922;28;20206;-50
2023/06/08 05:00:18;;;;;;;2.13;1.90;;;14.10;54.70;;;;;;5094645;28;20191;-55
2023/06/08 05:02:49;;;;;;;2.40;2.20;;;14.10;54.70;;;;;;5094441;28;20246;-52
2023/06/08 05:05:19;;;;;;;2.72;1.80;;;14.10;54.70;;;;;;5093979;28;20414;-56
2023/06/08 05:07:50;;;;;;;3.17;2.22;;;14.10;54.60;;;;;;5093964;28;20206;-56
2023/06/08 05:10:21;;;;;;;3.50;2.72;;;14.10;54.90;;;;;;5094166;28;20197;-57
2023/06/08 05:12:55;;;;;;;5.38;2.28;;;14.10;55.10;;;;;;5094247;28;20213;-54
2023/06/08 05:15:26;;;;;;;3.80;2.38;;;14.10;55.10;;;;;;5093971;28;20248;-53
2023/06/08 05:17:57;;;;;;;2.90;2.17;;;14.10;54.90;;;;;;5093130;28;20198;-53
2023/06/08 05:20:29;;;;;;;3.25;2.33;;;14.10;54.80;;;;;;5093217;28;20221;-51
2023/06/08 05:23:00;;;;;;;3.45;2.42;;;14.10;54.80;;;;;;5093602;28;20222;-54
2023/06/08 05:25:31;;;;;;;2.90;2.20;;;14.10;54.70;;;;;;5094321;28;20298;-54
2023/06/08 05:28:04;;;;;;;3.25;2.50;;;14.10;54.70;;;;;;5079526;28;20245;-53
2023/06/08 05:30:34;;;;;;;2.85;2.25;;;14.10;54.60;;;;;;5073134;28;20195;-53
2023/06/08 05:33:05;;;;;;;2.78;2.10;;;14.10;54.60;;;;;;5073641;28;20202;-55
2023/06/08 05:35:35;;;;;;;3.80;2.50;;;14.10;54.50;;;;;;5073619;28;20223;-56
2023/06/08 05:38:06;;;;;;;2.88;2.40;;;14.10;54.60;;;;;;5073680;28;20195;-55
2023/06/08 05:40:39;;;;;;;3.20;1.90;;;14.10;54.60;;;;;;5073597;28;20642;-51
2023/06/08 05:43:11;;;;;;;3.70;2.35;;;14.10;54.50;;;;;;5073277;28;20699;-52
2023/06/08 05:45:42;;;;;;;2.80;2.20;;;14.10;54.40;;;;;;5073254;28;20218;-53
2023/06/08 05:48:12;;;;;;;2.70;2.30;;;14.00;54.30;;;;;;5093231;28;20551;-57
2023/06/08 05:50:43;;;;;;;3.55;2.25;;;14.00;54.30;;;;;;5093738;28;20702;-53
2023/06/08 05:53:14;;;;;;;4.88;2.40;;;14.00;54.30;;;;;;5093805;28;20203;-57
2023/06/08 05:55:44;;;;;;;4.35;2.58;;;14.00;54.30;;;;;;5093294;28;20220;-51
2023/06/08 05:58:17;;;;;;;2.90;2.25;;;14.00;54.30;;;;;;5076780;28;20198;-53
2023/06/08 06:00:48;;;;;;;3.88;2.30;;;14.00;54.20;;;;;;5073278;28;20195;-54
2023/06/08 06:03:19;;;;;;;3.05;2.53;;;13.90;54.20;;;;;;5073249;28;20796;-55
2023/06/08 06:05:50;;;;;;;3.03;2.22;;;13.90;54.20;;;;;;5072973;28;20222;-55
2023/06/08 06:08:23;;;;;;;2.97;2.47;;;13.90;54.20;;;;;;5073241;28;20226;-55
2023/06/08 06:10:53;;;;;;;3.35;2.42;;;13.90;54.10;;;;;;5072813;28;20651;-57
2023/06/08 06:13:27;;;;;;;3.08;2.30;;;13.90;54.10;;;;;;5072504;28;20223;-52
2023/06/08 06:15:58;;;;;;;3.88;2.30;;;13.90;54.10;;;;;;5072855;28;20301;-56
2023/06/08 06:18:28;;;;;;;3.20;2.35;;;13.80;54.10;;;;;;5072792;28;20227;-53
2023/06/08 06:20:59;;;;;;;3.08;2.38;;;13.80;54.10;;;;;;5072950;28;20611;-51
2023/06/08 06:23:30;;;;;;;2.78;2.33;;;13.80;54.10;;;;;;5072836;28;20222;-49
2023/06/08 06:26:00;;;;;;;2.88;2.42;;;13.80;54.10;;;;;;5072519;28;20217;-49
2023/06/08 06:28:33;;;;;;;2.42;2.22;;;13.80;54.10;;;;;;5072465;28;20203;-49
2023/06/08 06:31:03;;;;;;;3.40;2.63;;;13.80;54.10;;;;;;5072175;28;20190;-51
2023/06/08 06:33:34;;;;;;;3.03;2.20;;;13.80;54.10;;;;;;5072673;28;20231;-55
2023/06/08 06:36:05;;;;;;;3.05;2.10;;;13.70;54.10;;;;;;5072682;28;20214;-54
2023/06/08 06:38:36;;;;;;;3.75;2.35;;;13.70;54.10;;;;;;5072747;28;20287;-54
2023/06/08 06:41:06;;;;;;;3.13;2.08;;;13.70;54.10;;;;;;5071849;28;20203;-53
2023/06/08 06:43:39;;;;;;;2.58;2.22;;;13.70;54.10;;;;;;5071941;28;20226;-56
2023/06/08 06:46:10;;;;;;;3.67;2.55;;;13.70;54.20;;;;;;5072188;28;20218;-53
2023/06/08 06:48:40;;;;;;;2.80;2.17;;;13.70;54.20;;;;;;5072187;28;20203;-53
2023/06/08 06:51:11;;;;;;;2.50;2.22;;;13.70;54.20;;;;;;5077050;28;20198;-54
2023/06/08 06:53:41;;;;;;;3.63;2.67;;;13.60;54.10;;;;;;5092183;28;20198;-53
2023/06/08 06:56:13;;;;;;;3.80;2.20;;;13.60;54.10;;;;;;5092481;28;20222;-56
2023/06/08 06:58:46;;;;;;;2.20;2.00;;;13.60;54.10;;;;;;5071779;28;20197;-56
2023/06/08 07:01:17;;;;;;;2.63;2.38;;;13.60;54.10;;;;;;5071643;28;20731;-55
2023/06/08 07:03:48;;;;;;;2.55;2.17;;;13.60;54.20;;;;;;5071806;28;20696;-52
2023/06/08 07:06:22;;;;;;;2.35;2.15;;;13.60;54.20;;;;;;5088997;28;20296;-50
2023/06/08 07:08:53;;;;;;;4.00;2.75;;;13.60;54.20;;;;;;5092367;28;20280;-52
2023/06/08 07:11:24;;;;;;;2.50;2.08;;;13.60;54.20;;;;;;5092121;28;20190;-50
2023/06/08 07:13:57;;;;;;;3.15;2.53;;;13.60;54.20;;;;;;5091328;28;20198;-51
2023/06/08 07:16:27;;;;;;;2.20;1.95;;;13.50;54.10;;;;;;5091635;28;20217;-53
2023/06/08 07:18:58;;;;;;;2.65;2.22;;;13.50;54.20;;;;;;5091626;28;20198;-57
2023/06/08 07:21:30;;;;;;;2.67;2.35;;;13.50;54.20;;;;;;5091744;28;20194;-53
2023/06/08 07:24:00;;;;;;;2.83;2.40;;;13.50;54.20;;;;;;5091504;28;20225;-54
2023/06/08 07:26:31;;;;;;;2.53;2.33;;;13.50;54.20;;;;;;5089641;28;20255;-52
2023/06/08 07:29:04;;;;;;;2.78;2.08;;;13.50;54.20;;;;;;5071316;28;20205;-55
2023/06/08 07:31:36;;;;;;;2.25;1.80;;;13.40;54.20;;;;;;5071732;28;20226;-54
2023/06/08 07:34:07;;;;;;;2.65;1.80;;;13.40;54.20;;;;;;5071721;28;20199;-54
2023/06/08 07:36:38;;;;;;;2.35;2.15;;;13.40;54.20;;;;;;5071454;28;20246;-56
2023/06/08 07:39:08;;;;;;;2.97;2.00;;;13.40;54.20;;;;;;5071406;28;20194;-57
2023/06/08 07:41:39;;;;;;;2.13;1.92;;;13.40;54.20;;;;;;5070668;28;20202;-56
2023/06/08 07:44:12;;;;;;;2.78;2.10;;;13.40;54.20;;;;;;5071185;28;20226;-51
2023/06/08 07:49:30;;;;;;;2.40;2.20;;;13.30;54.20;;;;;;5071746;28;20340;-54
2023/06/08 07:52:01;;;;;;;3.10;2.22;;;13.30;54.10;;;;;;5071115;28;20207;-55
2023/06/08 07:54:32;;;;;;;2.47;2.03;;;13.30;54.10;;;;;;5088464;28;20194;-48
2023/06/08 07:57:02;;;;;;;3.15;2.28;;;13.30;54.10;;;;;;5085444;28;20225;-56
2023/06/08 07:59:35;;;;;;;2.60;2.20;;;13.30;54.10;;;;;;5071847;28;20195;-56
2023/06/08 08:02:08;;;;;;;2.17;1.98;;;13.30;54.20;;;;;;5071275;28;20205;-56
2023/06/08 08:04:38;;;;;;;2.60;2.05;;;13.30;54.20;;;;;;5071139;28;20227;-56
2023/06/08 08:07:09;;;;;;;3.20;2.35;;;13.30;54.20;;;;;;5070728;28;20651;-56
2023/06/08 08:09:41;;;;;;;2.10;1.85;;;13.20;54.10;;;;;;5070826;28;20195;-57
2023/06/08 08:12:12;;;;;;;2.80;2.10;;;13.20;54.20;;;;;;5071269;28;20202;-55
2023/06/08 08:14:45;;;;;;;2.72;2.10;;;13.20;54.20;;;;;;5070770;28;20199;-55
2023/06/08 08:17:16;;;;;;;2.63;2.35;;;13.20;54.20;;;;;;5071160;28;20551;-56
2023/06/08 08:19:46;;;;;;;3.22;2.10;;;13.20;54.20;;;;;;5070817;28;20206;-56
2023/06/08 08:22:17;;;;;;;2.72;2.08;;;13.10;54.10;;;;;;5071032;28;20195;-57
2023/06/08 08:24:47;;;;;;;2.60;2.15;;;13.10;54.10;;;;;;5070677;28;20222;-56
2023/06/08 08:27:18;;;;;;;3.15;2.10;;;13.10;54.10;;;;;;5070465;28;20650;-55
2023/06/08 08:29:51;;;;;;;2.95;2.05;;;13.10;54.10;;;;;;5070725;28;20202;-55
2023/06/08 08:32:21;;;;;;;2.50;2.15;;;13.10;54.10;;;;;;5070698;28;20199;-52
2023/06/08 08:34:52;;;;;;;2.60;2.15;;;13.10;54.10;;;;;;5070047;28;20202;-54
2023/06/08 08:37:23;;;;;;;2.67;2.20;;;13.10;54.10;;;;;;5069910;28;20233;-57
2023/06/08 08:39:53;;;;;;;2.83;2.13;;;13.00;54.10;;;;;;5070312;28;20252;-51
2023/06/08 08:42:28;;;;;;;2.40;1.75;;;13.00;54.10;;;;;;5070365;28;20199;-51
2023/06/08 08:45:02;;;;;;;2.65;2.20;;;13.00;54.10;;;;;;5070196;28;20225;-51
2023/06/08 08:47:35;;;;;;;2.28;1.80;;;13.00;54.10;;;;;;5072658;28;20665;-52
2023/06/08 08:50:09;;;;;;;2.10;1.88;;;13.00;54.10;;;;;;5070441;28;20198;-51
2023/06/08 08:52:42;;;;;;;2.17;1.98;;;13.00;54.10;;;;;;5071523;28;20226;-55
2023/06/08 08:55:13;;;;;;;2.30;2.08;;;12.90;54.10;;;;;;5074230;28;20745;-54
2023/06/08 08:57:51;;;;;;;2.38;2.10;;;12.90;54.10;;;;;;5085577;28;20194;-50
2023/06/08 09:00:24;;;;;;;2.30;2.10;;;12.90;54.10;;;;;;5091160;28;20225;-56
2023/06/08 09:02:55;;;;;;;2.08;1.88;;;12.90;54.10;;;;;;5074035;28;20233;-56
2023/06/08 09:05:26;;;;;;;2.42;1.90;;;12.90;54.10;;;;;;5074308;28;20227;-53
2023/06/08 09:07:57;;;;;;;2.13;1.80;;;12.80;54.00;;;;;;5074396;28;20197;-54
2023/06/08 09:10:28;;;;;;;2.55;2.25;;;12.90;54.10;;;;;;5074479;28;20233;-51
2023/06/08 09:13:00;;;;;;;2.85;2.35;;;12.80;54.10;;;;;;5079684;28;20187;-54
2023/06/08 09:15:34;;;;;;;2.17;1.88;;;12.80;54.10;;;;;;5094540;28;20218;-55
2023/06/08 09:18:17;;;;;;;2.33;2.13;;;12.80;54.00;;;;;;5094418;28;20198;-50
2023/06/08 09:20:48;;;;;;;3.05;2.22;;;12.80;54.10;;;;;;5094569;28;20235;-51
2023/06/08 09:23:20;;;;;;;2.58;2.05;;;12.80;54.00;;;;;;5094480;28;20652;-55
2023/06/08 09:25:51;;;;;;;3.33;2.28;;;12.80;54.10;;;;;;5093905;28;20298;-53
2023/06/08 09:28:24;;;;;;;2.20;2.00;;;12.70;54.00;;;;;;5076865;28;20199;-53
2023/06/08 09:30:59;;;;;;;2.30;2.00;;;12.70;54.10;;;;;;5073661;28;20245;-51
2023/06/08 09:33:33;;;;;;;2.67;2.20;;;12.70;54.10;;;;;;5073521;28;20194;-52
2023/06/08 09:36:15;;;;;;;2.97;2.10;;;12.70;54.00;;;;;;5073883;28;20221;-54
2023/06/08 09:38:48;;;;;;;2.42;2.05;;;12.70;54.00;;;;;;5073956;28;20206;-48
2023/06/08 09:41:21;;;;;;;3.17;2.13;;;12.60;54.00;;;;;;5074009;28;20214;-56
2023/06/08 09:43:53;;;;;;;2.53;2.08;;;12.70;54.00;;;;;;5073864;28;20198;-54
2023/06/08 09:46:38;;;;;;;3.17;2.20;;;12.60;54.00;;;;;;5073214;28;20214;-55
2023/06/08 09:49:11;;;;;;;2.35;2.15;;;12.60;54.00;;;;;;5079650;28;20550;-51
2023/06/08 09:51:46;;;;;;;2.85;1.95;;;12.60;54.10;;;;;;5093908;28;20611;-55
2023/06/08 09:54:19;;;;;;;2.92;2.40;;;12.60;54.00;;;;;;5093976;28;20198;-51
2023/06/08 09:56:54;;;;;;;2.85;2.22;;;12.60;54.10;;;;;;5089102;28;20683;-56
2023/06/08 09:59:30;;;;;;;2.85;2.10;;;12.60;54.10;;;;;;5073531;28;20205;-55
2023/06/08 10:02:13;;;;;;;2.90;2.22;;;12.60;54.00;;;;;;5073302;28;20213;-56
2023/06/08 10:04:47;;;;;;;3.00;2.13;;;12.60;54.00;;;;;;5072478;28;20234;-56
2023/06/08 10:07:23;;;;;;;3.10;2.53;;;12.50;54.00;;;;;;5073040;28;20658;-54
2023/06/08 10:09:59;;;;;;;2.88;1.92;;;12.50;54.00;;;;;;5072783;28;20689;-55
2023/06/08 10:12:31;;;;;;;2.95;2.20;;;12.50;54.00;;;;;;5072966;28;20202;-58
2023/06/08 10:15:03;;;;;;;2.72;2.30;;;12.50;54.00;;;;;;5072584;28;20213;-55
2023/06/08 10:17:37;;;;;;;2.30;2.10;;;12.50;54.00;;;;;;5072895;28;20202;-54
2023/06/08 10:20:08;;;;;;;2.65;2.20;;;12.50;54.00;;;;;;5072724;28;20229;-56
2023/06/08 10:22:40;;;;;;;2.30;2.10;;;12.50;54.10;;;;;;5073118;28;20237;-55
2023/06/08 10:25:13;;;;;;;3.13;2.10;;;12.40;54.00;;;;;;5072562;28;20246;-53
2023/06/08 10:27:50;;;;;;;2.30;2.10;;;12.40;54.00;;;;;;5072742;28;20230;-50
2023/06/08 10:30:33;;;;;;;2.08;1.88;;;12.40;54.00;;;;;;5072533;28;20202;-53
2023/06/08 10:33:16;;;;;;;2.03;1.83;;;12.40;54.00;;;;;;5072810;28;20249;-53
2023/06/08 10:36:05;;;;;;;2.72;2.00;;;12.40;54.00;;;;;;5072407;28;20245;-51
2023/06/08 10:38:38;;;;;;;2.05;1.70;;;12.40;54.00;;;;;;5072553;28;20282;-54
2023/06/08 10:41:09;;;;;;;2.15;1.88;;;12.40;54.00;;;;;;5072261;28;20263;-56
2023/06/08 10:43:39;;;;;;;2.17;1.98;;;12.40;54.00;;;;;;5071833;28;20195;-53
2023/06/08 10:46:10;;;;;;;2.30;2.10;;;12.40;54.00;;;;;;5072522;28;20238;-50
2023/06/08 10:48:45;;;;;;;2.92;2.13;;;12.40;54.00;;;;;;5072385;28;20206;-56
2023/06/08 10:51:25;;;;;;;2.00;1.80;;;12.30;54.00;;;;;;5079113;28;20274;-56
2023/06/08 10:54:00;;;;;;;2.55;2.03;;;12.30;54.00;;;;;;5092543;28;20201;-56
2023/06/08 10:56:30;;;;;;;2.20;2.00;;;12.30;54.00;;;;;;5090642;28;20291;-56
2023/06/08 10:59:01;;;;;;;2.70;2.47;;;12.30;54.00;;;;;;5074869;28;20248;-54
2023/06/08 11:01:34;;;;;;;2.10;1.90;;;12.20;53.90;;;;;;5072395;28;20191;-56
2023/06/08 11:04:07;;;;;;;2.90;2.20;;;12.30;54.00;;;;;;5084922;28;20186;-54
2023/06/08 11:06:38;;;;;;;2.40;2.20;;;12.30;54.00;;;;;;5091193;28;20260;-55
2023/06/08 11:09:09;;;;;;;2.13;1.92;;;12.30;54.00;;;;;;5074597;28;20190;-54
2023/06/08 11:11:51;;;;;;;2.45;1.95;;;12.30;54.00;;;;;;5072463;28;20195;-53
2023/06/08 11:14:23;;;;;;;2.47;2.00;;;12.20;53.90;;;;;;5071836;28;20198;-54
2023/06/08 11:16:55;;;;;;;2.55;1.83;;;12.20;53.90;;;;;;5070878;28;20215;-56
2023/06/08 11:19:32;;;;;;;2.10;1.90;;;12.20;53.90;;;;;;5071589;28;20335;-50
2023/06/08 11:22:03;;;;;;;2.67;2.13;;;12.20;53.90;;;;;;5071804;28;20202;-55
2023/06/08 11:24:33;;;;;;;3.13;2.15;;;12.20;54.00;;;;;;5071467;28;20205;-55
2023/06/08 11:27:04;;;;;;;2.25;1.80;;;12.20;53.90;;;;;;5077978;28;20681;-53
2023/06/08 11:29:35;;;;;;;2.58;2.08;;;12.20;53.90;;;;;;5091693;28;20196;-53
2023/06/08 11:32:16;;;;;;;3.25;2.20;;;12.20;53.90;;;;;;5092017;28;20565;-53
2023/06/08 11:34:50;;;;;;;2.53;2.03;;;12.20;54.00;;;;;;5091797;28;20680;-54
2023/06/08 11:37:21;;;;;;;2.47;1.92;;;12.20;53.90;;;;;;5092015;28;20193;-52
2023/06/08 11:39:52;;;;;;;2.40;1.85;;;12.20;54.00;;;;;;5091891;28;20695;-56
2023/06/08 11:42:23;;;;;;;2.10;1.90;;;12.20;54.00;;;;;;5092026;28;20569;-49
2023/06/08 11:44:54;;;;;;;2.05;1.80;;;12.10;54.00;;;;;;5091858;28;20723;-51
2023/06/08 11:47:24;;;;;;;3.33;1.88;;;12.10;54.00;;;;;;5091975;28;20659;-53
2023/06/08 11:49:59;;;;;;;2.47;1.90;;;12.10;54.00;;;;;;5091240;28;20186;-53
2023/06/08 11:52:33;;;;;;;2.22;1.60;;;12.10;54.00;;;;;;5091402;28;20224;-53
2023/06/08 11:55:12;;;;;;;2.38;1.90;;;12.10;54.00;;;;;;5091449;28;20201;-49
2023/06/08 11:57:43;;;;;;;2.20;2.00;;;12.10;53.90;;;;;;5080605;28;20201;-54
2023/06/08 12:00:19;;;;;;;2.40;1.73;;;12.10;54.00;;;;;;5071737;28;20202;-54
2023/06/08 12:02:50;;;;;;;2.33;2.13;;;12.10;54.00;;;;;;5070951;28;20229;-53
2023/06/08 12:05:25;;;;;;;2.80;2.20;;;12.10;54.00;;;;;;5070930;28;20249;-55
2023/06/08 12:08:00;;;;;;;1.83;1.73;;;12.10;54.00;;;;;;5071325;28;20255;-53
2023/06/08 12:10:36;;;;;;;2.28;1.83;;;12.10;54.00;;;;;;5071108;28;20205;-53
2023/06/08 12:13:09;;;;;;;3.20;2.08;;;12.10;54.00;;;;;;5071130;28;20277;-56
2023/06/08 12:15:42;;;;;;;2.13;1.92;;;12.10;54.00;;;;;;5070866;28;20226;-55
2023/06/08 12:18:14;;;;;;;2.22;1.95;;;12.10;54.00;;;;;;5071136;28;20195;-56
2023/06/08 12:20:48;;;;;;;1.85;1.75;;;12.00;54.00;;;;;;5070985;28;20238;-51
2023/06/08 12:23:18;;;;;;;2.13;1.90;;;12.00;54.00;;;;;;5071074;28;20195;-56
2023/06/08 12:25:49;;;;;;;2.55;2.05;;;12.00;54.00;;;;;;5070981;28;20225;-56
2023/06/08 12:28:21;;;;;;;2.20;1.73;;;12.00;54.00;;;;;;5073643;28;20221;-53
2023/06/08 12:30:51;;;;;;;2.08;1.88;;;12.00;54.00;;;;;;5075077;28;20210;-55
2023/06/08 12:33:22;;;;;;;2.33;2.10;;;12.00;54.00;;;;;;5074928;28;20203;-55
2023/06/08 12:35:55;;;;;;;1.90;1.80;;;12.00;54.00;;;;;;5074778;28;20219;-52
2023/06/08 12:38:26;;;;;;;2.30;2.10;;;12.00;54.00;;;;;;5074888;28;20238;-52
2023/06/08 12:40:57;;;;;;;2.03;1.70;;;12.00;54.00;;;;;;5074669;28;20650;-51
2023/06/08 12:43:28;;;;;;;2.05;1.70;;;12.00;54.00;;;;;;5074281;28;20582;-53
2023/06/08 12:45:58;;;;;;;2.67;1.80;;;12.00;54.00;;;;;;5074689;28;20697;-55
2023/06/08 12:48:29;;;;;;;1.98;1.70;;;11.90;53.90;;;;;;5075109;28;20252;-54
2023/06/08 12:51:02;;;;;;;2.30;1.65;;;12.00;54.00;;;;;;5074433;28;20198;-54
2023/06/08 12:53:32;;;;;;;1.98;1.77;;;12.00;54.00;;;;;;5079773;28;20224;-53
2023/06/08 12:56:03;;;;;;;1.75;1.63;;;12.00;54.00;;;;;;5094857;28;20210;-52
2023/06/08 12:58:34;;;;;;;2.03;1.73;;;11.90;53.90;;;;;;5076344;28;20225;-55
2023/06/08 13:01:05;;;;;;;2.20;1.90;;;12.00;54.00;;;;;;5077108;28;20195;-51
2023/06/08 13:03:36;;;;;;;2.47;2.00;;;11.90;53.90;;;;;;5074946;28;20199;-53
2023/06/08 13:06:08;;;;;;;2.22;1.85;;;11.90;53.90;;;;;;5074713;28;20711;-52
2023/06/08 13:08:39;;;;;;;2.42;1.70;;;11.90;53.90;;;;;;5074287;28;20217;-50
2023/06/08 13:11:10;;;;;;;1.85;1.70;;;11.90;53.90;;;;;;5073655;28;20565;-56
2023/06/08 13:13:40;;;;;;;2.50;2.10;;;11.90;53.90;;;;;;5091120;28;20634;-55
2023/06/08 13:16:11;;;;;;;2.30;1.90;;;11.90;54.00;;;;;;5073585;28;20250;-54